Time;durP1;ratioP1;P1;durP2;ratioP2;P2;SDS_P1;SDS_P2;PMS_P1;PMS_P2;Temp;Humidity;BMP_temperature;BMP_pressure;BME280_temperature;BME280_humidity;BME280_pressure;Samples;Min_cycle;Max_cycle;Signal;HPM_P1;HPM_P2
2023/10/19 00:01:59;;;;;;;27.40;17.43;;;7.60;99.90;;;;;;5141372;27;20192;-78
2023/10/19 00:04:25;;;;;;;23.83;16.83;;;7.60;99.90;;;;;;5141589;27;20224;-78
2023/10/19 00:06:53;;;;;;;27.70;18.23;;;7.60;99.90;;;;;;5141248;27;20601;-78
2023/10/19 00:09:20;;;;;;;26.03;17.13;;;7.60;99.90;;;;;;5134029;27;20290;-78
2023/10/19 00:11:47;;;;;;;26.57;18.33;;;7.60;99.90;;;;;;5133088;27;20235;-78
2023/10/19 00:14:15;;;;;;;29.33;17.57;;;7.50;99.90;;;;;;5135417;27;20709;-78
2023/10/19 00:16:50;;;;;;;26.97;18.90;;;7.50;99.90;;;;;;5134234;27;20228;-78
2023/10/19 00:19:19;;;;;;;26.80;18.43;;;7.50;99.90;;;;;;5138487;27;20934;-78
2023/10/19 00:21:54;;;;;;;31.30;21.67;;;7.50;99.90;;;;;;5132176;27;20204;-78
2023/10/19 00:24:23;;;;;;;30.67;19.40;;;7.50;99.90;;;;;;5138935;27;20215;-78
2023/10/19 00:26:53;;;;;;;28.23;18.97;;;7.50;99.90;;;;;;5134444;27;20733;-76
2023/10/19 00:29:30;;;;;;;30.00;19.03;;;7.50;99.90;;;;;;5131131;27;20225;-77
2023/10/19 00:31:58;;;;;;;31.57;20.47;;;7.50;99.90;;;;;;5128749;27;20200;-78
2023/10/19 00:34:28;;;;;;;31.60;19.70;;;7.40;99.90;;;;;;5127668;27;20864;-78
2023/10/19 00:36:55;;;;;;;27.07;18.33;;;7.40;99.90;;;;;;5126067;27;20197;-77
2023/10/19 00:39:23;;;;;;;29.07;19.53;;;7.40;99.90;;;;;;5130425;27;20693;-77
2023/10/19 00:41:51;;;;;;;29.43;20.60;;;7.50;99.90;;;;;;5134953;27;20240;-78
2023/10/19 00:44:22;;;;;;;28.50;20.00;;;7.40;99.90;;;;;;5138926;27;20238;-77
2023/10/19 00:47:00;;;;;;;30.80;20.30;;;7.40;99.90;;;;;;5138340;27;20239;-78
2023/10/19 00:49:28;;;;;;;31.63;20.90;;;7.50;99.90;;;;;;5135986;27;20666;-77
2023/10/19 00:52:03;;;;;;;36.63;22.37;;;7.40;99.90;;;;;;5138915;27;20211;-78
2023/10/19 00:54:40;;;;;;;32.53;22.20;;;7.40;99.90;;;;;;5139986;27;20222;-78
2023/10/19 00:57:08;;;;;;;32.30;22.27;;;7.40;99.90;;;;;;5137958;27;20214;-78
2023/10/19 00:59:38;;;;;;;36.80;23.87;;;7.50;99.90;;;;;;5135818;27;20629;-78
2023/10/19 01:02:17;;;;;;;35.40;23.00;;;7.40;99.90;;;;;;5138898;27;20196;-78
2023/10/19 01:04:50;;;;;;;34.33;22.97;;;7.40;99.90;;;;;;5137007;27;20736;-77
2023/10/19 01:07:22;;;;;;;32.27;21.27;;;7.40;99.90;;;;;;5136036;27;20749;-78
2023/10/19 01:09:52;;;;;;;36.07;22.10;;;7.40;99.90;;;;;;5140057;27;20224;-77
2023/10/19 01:12:28;;;;;;;35.00;23.00;;;7.40;99.90;;;;;;5140258;27;20207;-77
2023/10/19 01:15:16;;;;;;;37.00;23.73;;;7.30;99.90;;;;;;5128976;27;20676;-78
2023/10/19 01:17:45;;;;;;;36.07;23.43;;;7.40;99.90;;;;;;5138951;27;20230;-78
2023/10/19 01:20:22;;;;;;;32.80;23.50;;;7.30;99.90;;;;;;5140301;27;20231;-78
2023/10/19 01:22:53;;;;;;;34.73;22.37;;;7.30;99.90;;;;;;5141513;27;20199;-77
2023/10/19 01:25:24;;;;;;;33.87;22.80;;;7.30;99.90;;;;;;5139641;27;20220;-78
2023/10/19 01:27:57;;;;;;;34.37;22.93;;;7.30;99.90;;;;;;5136396;27;20197;-78
2023/10/19 01:30:24;;;;;;;34.07;23.40;;;7.20;99.90;;;;;;5140851;27;20226;-79
2023/10/19 01:32:51;;;;;;;31.83;22.70;;;7.20;99.90;;;;;;5142112;27;20210;-78
2023/10/19 01:35:18;;;;;;;34.97;23.30;;;7.20;99.90;;;;;;5142456;27;20197;-79
2023/10/19 01:37:44;;;;;;;36.73;23.33;;;7.20;99.90;;;;;;5142717;27;20241;-79
2023/10/19 01:40:20;;;;;;;35.33;23.53;;;7.20;99.90;;;;;;5140539;27;20594;-78
2023/10/19 01:42:46;;;;;;;34.90;22.90;;;7.20;99.90;;;;;;5138894;27;20286;-78
2023/10/19 01:45:14;;;;;;;35.23;22.90;;;7.10;99.90;;;;;;5136114;27;20223;-78
2023/10/19 01:47:40;;;;;;;35.03;23.27;;;7.20;99.90;;;;;;5135186;27;20206;-78
2023/10/19 01:50:19;;;;;;;36.10;24.17;;;7.10;99.90;;;;;;5135055;27;20686;-78
2023/10/19 01:52:46;;;;;;;34.77;23.80;;;7.00;99.90;;;;;;5130174;27;20238;-77
2023/10/19 01:55:20;;;;;;;37.40;23.30;;;7.00;99.90;;;;;;5135170;27;20199;-79
2023/10/19 01:57:47;;;;;;;35.60;22.87;;;7.00;99.90;;;;;;5140581;27;20680;-79
2023/10/19 02:00:22;;;;;;;33.67;22.67;;;6.90;99.90;;;;;;5139340;27;20303;-79
2023/10/19 02:02:50;;;;;;;34.10;23.07;;;6.90;99.90;;;;;;5130486;27;20236;-78
2023/10/19 02:05:16;;;;;;;38.63;23.67;;;7.10;99.90;;;;;;5130524;27;20220;-78
2023/10/19 02:07:44;;;;;;;35.90;23.93;;;6.90;99.90;;;;;;5141763;27;20189;-78
2023/10/19 02:10:10;;;;;;;33.77;22.90;;;6.90;99.90;;;;;;5141485;27;20216;-79
2023/10/19 02:12:41;;;;;;;36.17;23.07;;;7.00;99.90;;;;;;5141188;27;20286;-78
2023/10/19 02:15:08;;;;;;;36.90;24.73;;;6.90;99.90;;;;;;5130477;27;20197;-79
2023/10/19 02:17:35;;;;;;;37.57;23.70;;;6.80;99.90;;;;;;5139141;27;20192;-79
2023/10/19 02:20:00;;;;;;;37.00;23.57;;;6.90;99.90;;;;;;5137079;27;20307;-78
2023/10/19 02:22:28;;;;;;;35.10;24.70;;;6.80;99.90;;;;;;5140349;27;20243;-79
2023/10/19 02:24:54;;;;;;;36.33;24.13;;;6.90;99.90;;;;;;5135357;27;20508;-78
2023/10/19 02:27:22;;;;;;;34.03;23.43;;;6.90;99.90;;;;;;5136571;27;20210;-79
2023/10/19 02:29:50;;;;;;;33.23;22.60;;;6.90;99.90;;;;;;5137228;27;20216;-78
2023/10/19 02:32:18;;;;;;;34.10;23.63;;;6.90;99.90;;;;;;5137323;27;20232;-79
2023/10/19 02:34:46;;;;;;;34.23;23.93;;;6.90;99.90;;;;;;5140501;27;20189;-77
2023/10/19 02:37:12;;;;;;;34.67;24.17;;;6.90;99.90;;;;;;5130078;27;20583;-78
2023/10/19 02:39:39;;;;;;;35.03;24.63;;;6.90;99.90;;;;;;5133651;27;20224;-78
2023/10/19 02:42:08;;;;;;;36.40;24.50;;;6.90;99.90;;;;;;5137671;27;20572;-78
2023/10/19 02:44:34;;;;;;;38.67;24.63;;;7.00;99.90;;;;;;5139779;27;20223;-78
2023/10/19 02:47:08;;;;;;;34.07;23.67;;;7.00;99.90;;;;;;5140306;27;20191;-79
2023/10/19 02:49:38;;;;;;;35.37;24.27;;;7.00;99.90;;;;;;5137961;27;20220;-79
2023/10/19 02:52:05;;;;;;;36.73;24.10;;;6.90;99.90;;;;;;5143759;27;20287;-79
2023/10/19 02:54:33;;;;;;;37.47;23.50;;;7.00;99.90;;;;;;5145284;27;20210;-79
2023/10/19 02:57:00;;;;;;;37.83;25.70;;;7.00;99.90;;;;;;5138353;27;20231;-79
2023/10/19 02:59:28;;;;;;;36.30;24.00;;;7.00;99.90;;;;;;5144229;27;20245;-77
2023/10/19 03:02:01;;;;;;;35.67;24.20;;;7.00;99.90;;;;;;5133926;27;20627;-79
2023/10/19 03:04:28;;;;;;;37.20;24.23;;;7.00;99.90;;;;;;5144073;27;20224;-79
2023/10/19 03:06:56;;;;;;;37.13;24.83;;;7.00;99.90;;;;;;5135404;27;20268;-78
2023/10/19 03:09:23;;;;;;;34.97;23.00;;;7.00;99.90;;;;;;5142541;27;20228;-78
2023/10/19 03:11:52;;;;;;;33.13;22.17;;;7.10;99.90;;;;;;5140709;28;20215;-79
2023/10/19 03:14:19;;;;;;;35.67;24.17;;;7.10;99.90;;;;;;5142951;28;20196;-78
2023/10/19 03:16:46;;;;;;;35.37;23.53;;;7.10;99.90;;;;;;5137802;28;20198;-78
2023/10/19 03:19:13;;;;;;;34.67;23.10;;;7.00;99.90;;;;;;5138823;28;20231;-77
2023/10/19 03:21:43;;;;;;;36.17;24.63;;;7.00;99.90;;;;;;5141671;27;20297;-77
2023/10/19 03:24:12;;;;;;;35.70;23.43;;;7.00;99.90;;;;;;5135327;28;20225;-78
2023/10/19 03:26:43;;;;;;;35.53;22.70;;;7.00;99.90;;;;;;5139667;28;20196;-77
2023/10/19 03:29:13;;;;;;;33.37;23.63;;;7.00;99.90;;;;;;5128486;27;20646;-78
2023/10/19 03:31:43;;;;;;;34.80;24.13;;;7.00;99.90;;;;;;5143827;28;20644;-77
2023/10/19 03:34:12;;;;;;;34.30;23.13;;;7.10;99.90;;;;;;5140006;28;20192;-78
2023/10/19 03:36:42;;;;;;;36.27;24.37;;;7.10;99.90;;;;;;5136607;28;20224;-78
2023/10/19 03:39:13;;;;;;;36.43;24.20;;;7.10;99.90;;;;;;5135020;28;20259;-79
2023/10/19 03:41:41;;;;;;;34.77;23.73;;;7.00;99.90;;;;;;5132736;28;20229;-78
2023/10/19 03:44:18;;;;;;;37.70;25.07;;;7.00;99.90;;;;;;5139622;28;20204;-78
2023/10/19 03:46:55;;;;;;;34.47;23.60;;;7.10;99.90;;;;;;5135480;28;20662;-78
2023/10/19 03:49:23;;;;;;;36.07;23.83;;;7.00;99.90;;;;;;5131143;28;20228;-77
2023/10/19 03:52:00;;;;;;;35.20;24.03;;;7.10;99.90;;;;;;5137433;28;20243;-79
2023/10/19 03:54:27;;;;;;;32.97;22.90;;;7.00;99.90;;;;;;5138018;28;20192;-78
2023/10/19 03:56:55;;;;;;;33.37;22.70;;;7.10;99.90;;;;;;5138541;28;20192;-78
2023/10/19 03:59:22;;;;;;;35.13;22.50;;;7.10;99.90;;;;;;5137898;28;20234;-79
2023/10/19 04:01:49;;;;;;;32.77;23.47;;;7.00;99.90;;;;;;5134666;28;20196;-78
2023/10/19 04:04:16;;;;;;;32.70;22.43;;;7.00;99.90;;;;;;5140731;28;20197;-78
2023/10/19 04:06:47;;;;;;;35.03;22.43;;;7.10;99.90;;;;;;5133304;28;20228;-77
2023/10/19 04:09:18;;;;;;;32.50;21.90;;;7.10;99.90;;;;;;5134066;28;20236;-79
2023/10/19 04:11:52;;;;;;;31.57;21.00;;;7.10;99.90;;;;;;5135056;27;20197;-78
2023/10/19 04:14:21;;;;;;;32.80;21.63;;;7.10;99.90;;;;;;5139668;27;20232;-77
2023/10/19 04:16:48;;;;;;;29.73;20.57;;;7.00;99.90;;;;;;5136377;27;20231;-78
2023/10/19 04:19:16;;;;;;;32.80;22.20;;;7.10;99.90;;;;;;5136078;27;20221;-79
2023/10/19 04:21:46;;;;;;;31.60;21.00;;;7.10;99.90;;;;;;5136987;27;20196;-78
2023/10/19 04:24:15;;;;;;;33.67;21.83;;;7.10;99.90;;;;;;5137034;27;20200;-78
2023/10/19 04:26:42;;;;;;;31.67;21.30;;;7.00;99.90;;;;;;5139420;27;20642;-78
2023/10/19 04:29:11;;;;;;;30.73;20.17;;;7.00;99.90;;;;;;5142531;27;20239;-79
2023/10/19 04:31:42;;;;;;;30.37;20.80;;;7.00;99.90;;;;;;5142050;27;20242;-78
2023/10/19 04:34:09;;;;;;;29.83;19.93;;;7.00;99.90;;;;;;5135263;27;20213;-79
2023/10/19 04:36:36;;;;;;;29.67;20.40;;;7.00;99.90;;;;;;5138696;27;20204;-77
2023/10/19 04:39:04;;;;;;;28.40;20.10;;;7.00;99.90;;;;;;5137239;27;20244;-79
2023/10/19 04:41:32;;;;;;;28.20;19.33;;;7.00;99.90;;;;;;5132225;27;20583;-79
2023/10/19 04:44:00;;;;;;;28.57;19.53;;;7.00;99.90;;;;;;5138624;27;20196;-80
2023/10/19 04:46:29;;;;;;;30.73;19.70;;;7.00;99.90;;;;;;5139161;27;20217;-79
2023/10/19 04:48:55;;;;;;;29.57;19.57;;;7.00;99.90;;;;;;5133635;27;20244;-79
2023/10/19 04:51:22;;;;;;;27.60;18.90;;;7.00;99.90;;;;;;5135701;27;20299;-79
2023/10/19 04:53:49;;;;;;;27.20;18.73;;;7.00;99.90;;;;;;5144217;27;20253;-78
2023/10/19 04:56:16;;;;;;;30.50;20.10;;;7.00;99.90;;;;;;5143853;27;20193;-79
2023/10/19 04:58:44;;;;;;;28.37;18.90;;;7.00;99.90;;;;;;5140926;27;20225;-78
2023/10/19 05:01:12;;;;;;;26.07;17.20;;;7.00;99.90;;;;;;5140302;27;20232;-79
2023/10/19 05:03:39;;;;;;;26.37;18.07;;;7.00;99.90;;;;;;5135338;27;20222;-79
2023/10/19 05:06:06;;;;;;;27.10;18.23;;;7.00;99.90;;;;;;5143833;27;20224;-78
2023/10/19 05:08:33;;;;;;;26.70;17.80;;;7.00;99.90;;;;;;5140255;27;20215;-79
2023/10/19 05:11:00;;;;;;;28.73;18.10;;;7.00;99.90;;;;;;5133282;27;20222;-79
2023/10/19 05:13:27;;;;;;;25.90;17.40;;;7.00;99.90;;;;;;5129437;27;20280;-79
2023/10/19 05:15:58;;;;;;;24.37;16.27;;;6.90;99.90;;;;;;5139160;27;20224;-79
2023/10/19 05:18:26;;;;;;;29.67;18.50;;;7.00;99.90;;;;;;5141355;27;20291;-78
2023/10/19 05:20:56;;;;;;;27.43;17.57;;;7.00;99.90;;;;;;5132414;27;20221;-79
2023/10/19 05:23:24;;;;;;;26.37;18.10;;;7.00;99.90;;;;;;5131601;27;20283;-78
2023/10/19 05:25:53;;;;;;;27.03;18.07;;;7.00;99.90;;;;;;5141207;27;20216;-79
2023/10/19 05:28:21;;;;;;;28.60;18.30;;;6.90;99.90;;;;;;5138362;27;20196;-80
2023/10/19 05:30:49;;;;;;;25.57;18.30;;;7.00;99.90;;;;;;5138850;27;20192;-79
2023/10/19 05:33:20;;;;;;;26.67;17.27;;;6.90;99.90;;;;;;5138404;27;20678;-80
2023/10/19 05:35:48;;;;;;;27.73;18.50;;;7.00;99.90;;;;;;5144436;27;20233;-79
2023/10/19 05:38:15;;;;;;;27.57;18.17;;;7.00;99.90;;;;;;5135567;27;20209;-80
2023/10/19 05:40:43;;;;;;;26.67;17.87;;;7.00;99.90;;;;;;5145490;27;20229;-79
2023/10/19 05:43:10;;;;;;;26.37;17.63;;;7.00;99.90;;;;;;5140712;27;20204;-80
2023/10/19 05:45:37;;;;;;;25.90;17.27;;;7.10;99.90;;;;;;5138936;27;20274;-79
2023/10/19 05:48:06;;;;;;;26.00;16.90;;;7.00;99.90;;;;;;5134334;27;20253;-80
2023/10/19 05:50:34;;;;;;;25.70;17.33;;;7.00;99.90;;;;;;5132727;27;20228;-79
2023/10/19 05:53:02;;;;;;;24.53;17.53;;;7.00;99.90;;;;;;5135104;27;20657;-78
2023/10/19 05:55:30;;;;;;;23.67;15.83;;;7.00;99.90;;;;;;5136194;27;20249;-80
2023/10/19 05:57:57;;;;;;;23.10;15.90;;;7.10;99.90;;;;;;5135708;27;20580;-81
2023/10/19 06:00:25;;;;;;;25.23;16.87;;;7.00;99.90;;;;;;5139616;27;20225;-80
2023/10/19 06:02:53;;;;;;;21.90;14.83;;;7.00;99.90;;;;;;5136089;27;20568;-80
2023/10/19 06:05:21;;;;;;;23.03;15.83;;;7.00;99.90;;;;;;5134022;27;20212;-80
2023/10/19 06:07:50;;;;;;;22.50;14.63;;;7.00;99.90;;;;;;5136831;27;20212;-80
2023/10/19 06:10:20;;;;;;;22.80;15.87;;;7.10;99.90;;;;;;5134932;27;20216;-81
2023/10/19 06:12:48;;;;;;;23.83;15.03;;;7.00;99.90;;;;;;5130088;27;20208;-80
2023/10/19 06:15:16;;;;;;;23.47;15.37;;;7.00;99.90;;;;;;5133350;27;20698;-80
2023/10/19 06:17:45;;;;;;;21.17;14.57;;;7.00;99.90;;;;;;5136411;27;20275;-80
2023/10/19 06:20:23;;;;;;;22.60;14.73;;;7.10;99.90;;;;;;5133890;27;20220;-81
2023/10/19 06:22:52;;;;;;;19.13;12.27;;;7.00;99.90;;;;;;5134451;27;20227;-80
2023/10/19 06:25:21;;;;;;;21.80;13.47;;;7.10;99.90;;;;;;5133508;27;20303;-80
2023/10/19 06:27:48;;;;;;;19.50;13.30;;;7.00;99.90;;;;;;5132819;27;20229;-80
2023/10/19 06:30:18;;;;;;;18.13;12.43;;;7.00;99.90;;;;;;5130911;27;20228;-81
2023/10/19 06:32:50;;;;;;;17.83;12.37;;;7.00;99.90;;;;;;5133687;27;20574;-79
2023/10/19 06:35:17;;;;;;;19.50;12.20;;;7.00;99.90;;;;;;5135923;27;20200;-80
2023/10/19 06:37:44;;;;;;;18.43;11.63;;;7.00;99.90;;;;;;5133416;27;20212;-82
2023/10/19 06:40:14;;;;;;;17.00;11.83;;;7.00;99.90;;;;;;5133781;27;20217;-80
2023/10/19 06:42:41;;;;;;;17.77;11.80;;;7.00;99.90;;;;;;5129771;27;20217;-79
2023/10/19 06:45:13;;;;;;;16.37;11.37;;;7.00;99.90;;;;;;5130866;27;20228;-80
2023/10/19 06:47:41;;;;;;;17.17;11.37;;;7.00;99.90;;;;;;5133541;27;20574;-80
2023/10/19 06:50:10;;;;;;;17.17;10.97;;;7.00;99.90;;;;;;5132778;27;20280;-81
2023/10/19 06:52:37;;;;;;;18.47;11.20;;;7.00;99.90;;;;;;5136865;27;20217;-81
2023/10/19 06:55:07;;;;;;;16.17;10.60;;;7.00;99.90;;;;;;5132855;27;20200;-81
2023/10/19 06:57:36;;;;;;;16.93;11.23;;;7.00;99.90;;;;;;5133617;27;20200;-79
2023/10/19 07:00:13;;;;;;;16.37;10.57;;;7.10;99.90;;;;;;5137676;27;20763;-85
2023/10/19 07:02:41;;;;;;;14.67;9.90;;;7.10;99.90;;;;;;5131302;27;20201;-80
2023/10/19 07:05:11;;;;;;;17.33;10.87;;;7.10;99.90;;;;;;5131585;27;20201;-79
2023/10/19 07:07:40;;;;;;;16.53;10.77;;;7.10;99.90;;;;;;5136120;27;20205;-80
2023/10/19 07:10:09;;;;;;;16.23;10.60;;;7.10;99.90;;;;;;5138549;28;20228;-80
2023/10/19 07:12:37;;;;;;;17.17;10.80;;;7.10;99.90;;;;;;5138225;28;20193;-79
2023/10/19 07:15:07;;;;;;;16.73;10.80;;;7.00;99.90;;;;;;5137284;28;20204;-80
2023/10/19 07:17:37;;;;;;;16.50;11.00;;;7.10;99.90;;;;;;5129441;28;20216;-79
2023/10/19 07:20:08;;;;;;;15.33;9.93;;;7.10;99.90;;;;;;5137173;28;20521;-80
2023/10/19 07:22:37;;;;;;;16.73;10.97;;;7.10;99.90;;;;;;5133006;28;20200;-79
2023/10/19 07:25:05;;;;;;;16.77;10.60;;;7.20;99.90;;;;;;5134818;28;20196;-80
2023/10/19 07:27:33;;;;;;;15.83;10.47;;;7.20;99.90;;;;;;5128574;27;20262;-81
2023/10/19 07:30:05;;;;;;;15.77;10.50;;;7.20;99.90;;;;;;5124573;28;20220;-81
2023/10/19 07:32:33;;;;;;;15.00;9.70;;;7.20;99.90;;;;;;5126139;28;20669;-81
2023/10/19 07:35:00;;;;;;;15.90;9.80;;;7.20;99.90;;;;;;5131920;28;20227;-81
2023/10/19 07:37:27;;;;;;;14.37;9.63;;;7.20;99.90;;;;;;5138709;27;20306;-82
2023/10/19 07:39:56;;;;;;;15.50;10.03;;;7.20;99.90;;;;;;5131544;28;20235;-80
2023/10/19 07:42:24;;;;;;;15.67;9.83;;;7.20;99.90;;;;;;5131778;28;20235;-82
2023/10/19 07:44:51;;;;;;;15.47;9.40;;;7.20;99.90;;;;;;5127392;28;20208;-81
2023/10/19 07:47:19;;;;;;;13.77;9.20;;;7.30;99.90;;;;;;5133024;27;20213;-79
2023/10/19 07:49:47;;;;;;;15.40;10.33;;;7.30;99.90;;;;;;5140602;27;20220;-81
2023/10/19 07:52:14;;;;;;;13.77;9.17;;;7.40;99.90;;;;;;5141974;27;20273;-81
2023/10/19 07:54:41;;;;;;;13.67;9.33;;;7.50;99.90;;;;;;5147861;27;20230;-81
2023/10/19 07:57:08;;;;;;;16.83;10.83;;;7.30;99.90;;;;;;5142329;27;20189;-80
2023/10/19 07:59:35;;;;;;;14.73;9.47;;;7.30;99.90;;;;;;5146006;27;20653;-81
2023/10/19 08:02:03;;;;;;;13.07;9.20;;;7.30;99.90;;;;;;5146700;27;20220;-81
2023/10/19 08:04:32;;;;;;;15.00;10.20;;;7.40;99.90;;;;;;5145932;27;20212;-82
2023/10/19 08:06:59;;;;;;;13.17;9.37;;;7.40;99.90;;;;;;5142728;27;20710;-81
2023/10/19 08:09:31;;;;;;;15.30;10.07;;;7.40;99.90;;;;;;5144962;27;20227;-81
2023/10/19 08:11:59;;;;;;;14.90;10.33;;;7.40;99.90;;;;;;5138622;27;20613;-81
2023/10/19 08:14:26;;;;;;;17.07;10.43;;;7.40;99.90;;;;;;5132076;27;20204;-81
2023/10/19 08:16:53;;;;;;;18.57;10.00;;;7.50;99.90;;;;;;5136334;27;20284;-81
2023/10/19 08:19:20;;;;;;;17.60;11.33;;;7.50;99.90;;;;;;5146429;27;20212;-82
2023/10/19 08:21:49;;;;;;;15.17;10.33;;;7.50;99.90;;;;;;5146883;27;20200;-81
2023/10/19 08:24:17;;;;;;;15.83;10.50;;;7.50;99.90;;;;;;5147128;27;20211;-82
2023/10/19 08:26:45;;;;;;;18.90;12.40;;;7.50;99.90;;;;;;5140105;27;20225;-83
2023/10/19 08:29:13;;;;;;;17.63;11.13;;;7.70;99.90;;;;;;5143551;27;20281;-80
2023/10/19 08:31:41;;;;;;;15.70;10.20;;;7.60;99.90;;;;;;5145066;27;20223;-82
2023/10/19 08:34:09;;;;;;;16.60;11.50;;;7.60;99.90;;;;;;5138523;27;20204;-82
2023/10/19 08:36:37;;;;;;;18.80;11.90;;;7.60;99.90;;;;;;5145101;27;20283;-82
2023/10/19 08:39:05;;;;;;;15.33;10.53;;;7.60;99.90;;;;;;5138634;27;20228;-82
2023/10/19 08:41:34;;;;;;;18.13;11.43;;;7.60;99.90;;;;;;5136791;27;20208;-83
2023/10/19 08:44:01;;;;;;;16.10;10.60;;;7.70;99.90;;;;;;5133405;27;20193;-82
2023/10/19 08:46:28;;;;;;;16.37;9.73;;;7.60;99.90;;;;;;5133032;27;20601;-81
2023/10/19 08:48:59;;;;;;;15.90;10.77;;;7.60;99.90;;;;;;5135644;27;20224;-83
2023/10/19 08:51:26;;;;;;;14.40;10.30;;;7.70;99.90;;;;;;5137824;27;20212;-82
2023/10/19 08:53:54;;;;;;;14.73;9.93;;;7.70;99.90;;;;;;5141592;27;20723;-84
2023/10/19 08:56:23;;;;;;;14.60;9.87;;;7.70;99.90;;;;;;5133310;27;20278;-83
2023/10/19 08:58:52;;;;;;;16.57;10.67;;;7.80;99.90;;;;;;5135686;27;20587;-83
2023/10/19 09:01:23;;;;;;;14.97;10.07;;;7.70;99.90;;;;;;5134182;27;20201;-82
2023/10/19 09:03:51;;;;;;;15.20;10.13;;;7.80;99.90;;;;;;5132266;27;20196;-82
2023/10/19 09:06:18;;;;;;;14.67;10.33;;;7.80;99.90;;;;;;5136542;27;20248;-82
2023/10/19 09:08:48;;;;;;;16.27;10.50;;;7.80;99.90;;;;;;5138085;27;20279;-82
2023/10/19 09:11:15;;;;;;;16.87;11.07;;;7.80;99.90;;;;;;5131808;27;20631;-83
2023/10/19 09:13:48;;;;;;;16.33;11.00;;;7.80;99.90;;;;;;5134539;27;20200;-84
2023/10/19 09:16:16;;;;;;;16.73;11.30;;;7.80;99.90;;;;;;5133246;27;20247;-83
2023/10/19 09:18:44;;;;;;;16.97;11.47;;;7.90;99.90;;;;;;5137676;27;20231;-83
2023/10/19 09:21:24;;;;;;;17.63;11.13;;;7.90;99.90;;;;;;5139878;27;20207;-83
2023/10/19 09:23:51;;;;;;;16.23;10.90;;;7.90;99.90;;;;;;5137021;27;20204;-83
2023/10/19 09:26:18;;;;;;;17.37;11.10;;;8.00;99.90;;;;;;5141818;27;20284;-82
2023/10/19 09:28:49;;;;;;;17.77;11.90;;;8.10;99.90;;;;;;5130593;27;20232;-82
2023/10/19 09:31:21;;;;;;;15.93;10.93;;;8.00;99.90;;;;;;5136801;27;20268;-84
2023/10/19 09:33:56;;;;;;;17.27;11.23;;;8.10;99.90;;;;;;5130155;27;20223;-82
2023/10/19 09:36:29;;;;;;;18.37;11.53;;;8.20;99.90;;;;;;5131289;27;20234;-81
2023/10/19 09:38:58;;;;;;;17.03;11.77;;;8.20;99.90;;;;;;5130678;27;20269;-82
2023/10/19 09:41:28;;;;;;;18.43;11.83;;;8.20;99.90;;;;;;5134228;27;20575;-82
2023/10/19 09:44:10;;;;;;;17.07;11.97;;;8.20;99.90;;;;;;5129544;27;20205;-82
2023/10/19 09:46:44;;;;;;;17.07;12.10;;;8.30;99.90;;;;;;5128571;27;20212;-82
2023/10/19 09:49:13;;;;;;;17.30;11.57;;;8.40;99.90;;;;;;5126285;27;20220;-82
2023/10/19 09:51:49;;;;;;;18.67;12.00;;;8.30;99.90;;;;;;5123559;27;20213;-82
2023/10/19 09:54:30;;;;;;;18.80;13.43;;;8.40;99.90;;;;;;5132250;27;20211;-83
2023/10/19 09:57:06;;;;;;;18.30;11.60;;;8.40;99.90;;;;;;5129666;27;20184;-82
2023/10/19 09:59:38;;;;;;;16.93;11.60;;;8.50;99.90;;;;;;5125982;27;20228;-81
2023/10/19 10:02:08;;;;;;;18.80;11.90;;;8.50;99.90;;;;;;5134771;27;20208;-81
2023/10/19 10:04:36;;;;;;;15.87;10.90;;;8.40;99.90;;;;;;5126294;27;20201;-82
2023/10/19 10:07:06;;;;;;;15.83;11.13;;;8.50;99.90;;;;;;5135988;27;20673;-82
2023/10/19 10:09:39;;;;;;;14.07;10.37;;;8.50;99.90;;;;;;5136827;27;20228;-80
2023/10/19 10:12:21;;;;;;;17.43;12.33;;;8.60;99.90;;;;;;5121198;27;20217;-85
2023/10/19 10:15:01;;;;;;;16.53;11.13;;;8.70;99.90;;;;;;5129134;27;20200;-81
2023/10/19 10:17:28;;;;;;;16.47;11.23;;;8.60;99.90;;;;;;5135453;27;20221;-81
2023/10/19 10:19:59;;;;;;;17.00;11.73;;;8.60;99.90;;;;;;5133946;27;20251;-84
2023/10/19 10:22:27;;;;;;;17.93;12.23;;;8.60;99.90;;;;;;5134284;27;20235;-82
2023/10/19 10:24:57;;;;;;;15.03;10.30;;;8.50;99.90;;;;;;5139660;27;20230;-84
2023/10/19 10:27:24;;;;;;;18.10;12.80;;;8.60;99.90;;;;;;5128822;27;20221;-82
2023/10/19 10:30:01;;;;;;;16.33;11.50;;;8.70;99.90;;;;;;5130233;27;20216;-81
2023/10/19 10:32:44;;;;;;;17.77;11.00;;;8.70;99.90;;;;;;5135008;27;20214;-84
2023/10/19 10:35:33;;;;;;;18.10;12.20;;;8.60;99.90;;;;;;5132756;27;20210;-82
2023/10/19 10:38:00;;;;;;;17.80;11.67;;;8.60;99.90;;;;;;5130523;27;20208;-82
2023/10/19 10:40:27;;;;;;;18.57;12.90;;;8.70;99.90;;;;;;5121025;28;20227;-82
2023/10/19 10:43:06;;;;;;;18.10;13.17;;;8.70;99.90;;;;;;5137257;27;20208;-82
2023/10/19 10:45:35;;;;;;;18.30;12.83;;;8.70;99.90;;;;;;5132385;27;20204;-82
2023/10/19 10:48:02;;;;;;;17.50;12.40;;;8.70;99.90;;;;;;5133034;27;20246;-82
2023/10/19 10:50:29;;;;;;;17.20;11.73;;;8.80;99.90;;;;;;5140871;27;20273;-82
2023/10/19 10:52:57;;;;;;;17.40;12.53;;;8.90;99.90;;;;;;5136859;27;20200;-81
2023/10/19 10:55:25;;;;;;;18.50;12.23;;;8.90;99.90;;;;;;5127501;27;20234;-83
2023/10/19 10:57:52;;;;;;;17.47;12.20;;;8.90;99.90;;;;;;5131938;27;20251;-82
2023/10/19 11:00:20;;;;;;;17.10;11.80;;;8.90;99.90;;;;;;5127084;27;20653;-82
2023/10/19 11:02:59;;;;;;;17.20;11.90;;;9.00;99.90;;;;;;5141277;27;20268;-81
2023/10/19 11:05:26;;;;;;;17.23;12.73;;;8.90;99.90;;;;;;5130775;27;20250;-82
2023/10/19 11:08:09;;;;;;;16.57;11.43;;;8.90;99.90;;;;;;5127076;27;20828;-83
2023/10/19 11:10:37;;;;;;;17.20;12.17;;;9.00;99.90;;;;;;5132941;28;20220;-83
2023/10/19 11:13:05;;;;;;;19.00;12.50;;;9.00;99.90;;;;;;5137893;28;20235;-82
2023/10/19 11:15:33;;;;;;;18.47;12.40;;;9.00;99.90;;;;;;5130751;28;20204;-82
2023/10/19 11:18:02;;;;;;;18.77;13.03;;;9.10;99.90;;;;;;5133917;28;21412;-82
2023/10/19 11:20:29;;;;;;;18.93;14.07;;;9.20;99.90;;;;;;5136958;27;20216;-81
2023/10/19 11:23:00;;;;;;;20.67;14.10;;;9.20;99.90;;;;;;5144624;27;20204;-81
2023/10/19 11:25:29;;;;;;;19.43;13.20;;;9.20;99.90;;;;;;5131515;27;20669;-82
2023/10/19 11:27:56;;;;;;;20.37;14.30;;;9.20;99.90;;;;;;5131037;27;20227;-83
2023/10/19 11:30:27;;;;;;;21.80;14.17;;;9.20;99.90;;;;;;5141349;27;20223;-83
2023/10/19 11:32:56;;;;;;;20.10;14.17;;;9.30;99.90;;;;;;5133774;27;20205;-82
2023/10/19 11:35:25;;;;;;;20.10;14.10;;;9.20;99.90;;;;;;5139301;27;20204;-82
2023/10/19 11:37:53;;;;;;;20.80;14.10;;;9.30;99.90;;;;;;5143054;27;20223;-82
2023/10/19 11:40:21;;;;;;;22.47;14.50;;;9.40;99.90;;;;;;5131317;27;20228;-80
2023/10/19 11:42:48;;;;;;;22.93;14.63;;;9.30;99.90;;;;;;5134675;27;20231;-82
2023/10/19 11:45:16;;;;;;;22.97;15.10;;;9.30;99.90;;;;;;5132430;27;20212;-82
2023/10/19 11:47:43;;;;;;;21.30;15.43;;;9.30;99.90;;;;;;5138053;27;20216;-81
2023/10/19 11:50:12;;;;;;;19.83;13.83;;;9.30;99.90;;;;;;5132766;27;20600;-83
2023/10/19 11:52:40;;;;;;;21.87;14.77;;;9.40;99.90;;;;;;5134711;27;20208;-81
2023/10/19 11:55:09;;;;;;;21.17;14.13;;;9.40;99.90;;;;;;5143255;27;20196;-81
2023/10/19 11:57:36;;;;;;;19.73;13.73;;;9.40;99.90;;;;;;5140414;27;20204;-82
2023/10/19 12:00:08;;;;;;;22.30;13.97;;;9.40;99.90;;;;;;5135143;27;20687;-82
2023/10/19 12:02:37;;;;;;;19.40;13.07;;;9.40;99.90;;;;;;5137782;27;20224;-82
2023/10/19 12:05:05;;;;;;;18.80;12.77;;;9.40;99.90;;;;;;5130851;27;20205;-82
2023/10/19 12:07:36;;;;;;;19.53;13.40;;;9.40;99.90;;;;;;5132456;27;20296;-81
2023/10/19 12:10:05;;;;;;;19.63;13.83;;;9.50;99.90;;;;;;5122232;28;20300;-82
2023/10/19 12:12:32;;;;;;;19.13;13.33;;;9.50;99.90;;;;;;5135314;27;20213;-81
2023/10/19 12:14:59;;;;;;;19.77;13.43;;;9.50;99.90;;;;;;5127304;27;20633;-83
2023/10/19 12:17:27;;;;;;;20.67;14.17;;;9.60;99.90;;;;;;5138754;27;20193;-82
2023/10/19 12:19:55;;;;;;;20.63;14.03;;;9.60;99.90;;;;;;5133830;27;20307;-82
2023/10/19 12:22:22;;;;;;;23.60;15.50;;;9.70;99.90;;;;;;5135464;27;20197;-82
2023/10/19 12:24:49;;;;;;;23.90;16.40;;;9.70;99.90;;;;;;5129837;27;20580;-81
2023/10/19 12:27:20;;;;;;;21.70;14.83;;;9.70;99.90;;;;;;5143829;27;20231;-82
2023/10/19 12:29:47;;;;;;;22.80;15.37;;;9.70;99.90;;;;;;5138276;27;20299;-84
2023/10/19 12:32:14;;;;;;;22.03;14.53;;;9.70;99.90;;;;;;5128503;27;20212;-81
2023/10/19 12:34:42;;;;;;;20.77;14.23;;;9.70;99.90;;;;;;5139354;27;20201;-82
2023/10/19 12:37:11;;;;;;;20.93;14.37;;;9.80;99.90;;;;;;5132669;27;20192;-81
2023/10/19 12:39:42;;;;;;;21.20;14.07;;;9.80;99.90;;;;;;5141047;27;20220;-81
2023/10/19 12:42:09;;;;;;;21.63;14.30;;;9.80;99.90;;;;;;5139870;27;20228;-79
2023/10/19 12:44:41;;;;;;;20.57;14.03;;;9.80;99.90;;;;;;5136736;27;20282;-79
2023/10/19 12:47:10;;;;;;;22.17;14.43;;;9.80;99.90;;;;;;5142447;27;20212;-80
2023/10/19 12:49:37;;;;;;;23.83;15.80;;;9.80;99.90;;;;;;5134039;27;20319;-79